Aérodrome :
LOGIN :

S'inscrire | Disclaimer

   EN    FR    IT 

 










Légende :    VFR   VFR Marginal   IFR   IFR Intensif   IFR Très Intensif
Visi : 
Plafond : 
>= 8 km
>= 3000ft
5 à 8 km
1000 à 3000 ft
1500m à 5 km
500 à 1000 ft
800 à 1500m
200 à 500 ft
< 800m
< 200 ft
Symboles :   Orages  Brouillard  Fortes neiges  Fortes précipitations  Vent > 20 kt
SIGMETs :   Divers  Orages  Givrage  Turbulence  Onde Orograph.  Cendres Volcan.







- Altitude de l'aérodrome : 306 ft
- Code IATA : EMA
- Voir les cartes d'approche


EGNX - Nottingham East Midlands

DERNIER METAR :
  • 190320Z 21008KT 8000 RA SCT005 06/06 Q1016

METARs EXPIRÉS :
  • 190250Z 21009KT 6000 BKN003 06/06 Q1016
  • 190220Z 21010KT 9000 -DZ BKN004 OVC013 06/06 Q1016
  • 190150Z 20008KT 8000 -DZ SCT005 BKN007 BKN015 06/06 Q1017
  • 190120Z 20009KT 7000 -RA BKN006 BKN017 06/06 Q1017 RERA
  • 190050Z 20010KT 7000 RA SCT006 BKN018 06/06 Q1017

TAF AMD TAF EGNX
Valide du 19 à 00h jusqu'au 20 à 00h UTC


190034Z 1900/1924 19005KT 8000 RA BKN015
BECMG 1900/1903 4000 -RADZ BKN004
PROB30 1900/1910 0300 FG BKN001
BECMG 1906/1909 29010KT
BECMG 1909/1912 9999 NSW BKN008
BECMG 1912/1915 BKN012
BECMG 1915/1918 SCT015
ATIS : +44 1332 852 852 (ext 3201)
Pas de NOTAMs connus pour ce terrain.



MET'MAP, la Météo Aéronautique d'un coup d'oeil ! - Copyright ORBIFLY Décembre 2007 - Disclaimer

ORBIFLY MET'MAP TEAM :

Programmation & Développement : Alexandra Zaïnal
Conception & Développement : Baudouin d'Aumeries
Co-Programmation & Développement : Marc-Olivier Méhu
Soutien technique & logistique : Manuel Goepfert

Contact : metmap@orbifly.com




SOURCES & CREDITS :

   NOAA